Johnsville, California
Current Conditions -  °F | °C
As of 5:52 AM on Saturday 25 Oct 2014 (Local Time) from KBLU Reporting Station
Broken Clouds Broken Clouds  
Wind Chill: 38°   Ceiling: 2100
Heat Index: 44°   Visibility: 10mi
Dew Point: 40°   Wind: 13mph
Humidity: 85%   Direction: 160°SSE
Pressure: 30.04"   Gusts: 21mph
Location:  39.7722°N, 120.711°W
Report Text: KBLU 251252Z AUTO 16011G18KT 10SM FEW006 SCT011 BKN021 07/04 A3004 RMK AO2 SLP127 T00670044
Loading
Personal Weather Stations






























Interactive Weather Map
Tropical Storm Tracking
New forecast layout! Learn more

10-Day Weather Forecast

Advertisements
Track Severe Weather on mobile